Time;durP1;ratioP1;P1;durP2;ratioP2;P2;SDS_P1;SDS_P2;PMS_P1;PMS_P2;Temp;Humidity;BMP_temperature;BMP_pressure;BME280_temperature;BME280_humidity;BME280_pressure;Samples;Min_cycle;Max_cycle;Signal;HPM_P1;HPM_P2
2021/01/14 00:01:27;;;;;;;;;;;;;;;;;;4988992;28;19930;-70
2021/01/14 00:03:54;;;;;;;;;;;;;;;;;;4989932;28;19933;-69
2021/01/14 00:06:22;;;;;;;;;;;;;;;;;;4990525;28;19937;-70
2021/01/14 00:08:49;;;;;;;;;;;;;;;;;;4989971;28;19933;-69
2021/01/14 00:11:16;;;;;;;;;;;;;;;;;;4989765;28;19926;-70
2021/01/14 00:13:43;;;;;;;;;;;;;;;;;;4988663;28;20395;-70
2021/01/14 00:16:10;;;;;;;;;;;;;;;;;;4989666;28;19930;-70
2021/01/14 00:18:37;;;;;;;;;;;;;;;;;;4989363;28;19930;-69
2021/01/14 00:21:04;;;;;;;;;;;;;;;;;;4988961;28;20016;-70
2021/01/14 00:23:31;;;;;;;;;;;;;;;;;;4988783;28;20441;-70
2021/01/14 00:25:58;;;;;;;;;;;;;;;;;;4988393;28;19940;-69
2021/01/14 00:28:25;;;;;;;;;;;;;;;;;;4988895;28;20415;-70
2021/01/14 00:30:52;;;;;;;;;;;;;;;;;;4988278;28;21069;-69
2021/01/14 00:33:20;;;;;;;;;;;;;;;;;;4989313;28;19932;-69
2021/01/14 00:35:47;;;;;;;;;;;;;;;;;;4990102;28;19976;-70
2021/01/14 00:38:13;;;;;;;;;;;;;;;;;;4988533;28;19936;-70
2021/01/14 00:40:40;;;;;;;;;;;;;;;;;;4987178;28;20016;-70
2021/01/14 00:43:08;;;;;;;;;;;;;;;;;;4988774;28;20401;-70
2021/01/14 00:45:35;;;;;;;;;;;;;;;;;;4989099;28;20032;-69
2021/01/14 00:48:02;;;;;;;;;;;;;;;;;;4987525;28;19930;-69
2021/01/14 00:50:30;;;;;;;;;;;;;;;;;;4987789;28;19932;-70
2021/01/14 00:52:57;;;;;;;;;;;;;;;;;;4988666;28;19965;-70
2021/01/14 00:55:24;;;;;;;;;;;;;;;;;;4988522;28;20353;-70
2021/01/14 00:57:51;;;;;;;;;;;;;;;;;;4988204;28;19926;-70
2021/01/14 01:00:18;;;;;;;;;;;;;;;;;;4987599;28;19926;-70
2021/01/14 01:02:45;;;;;;;;;;;;;;;;;;4980903;28;19933;-69
2021/01/14 01:05:12;;;;;;;;;;;;;;;;;;4989298;28;19932;-69
2021/01/14 01:07:40;;;;;;;;;;;;;;;;;;4988506;28;19926;-69
2021/01/14 01:10:07;;;;;;;;;;;;;;;;;;4980673;28;20386;-69
2021/01/14 01:12:34;;;;;;;;;;;;;;;;;;4989388;28;19937;-69
2021/01/14 01:15:01;;;;;;;;;;;;;;;;;;4988684;28;20021;-69
2021/01/14 01:17:28;;;;;;;;;;;;;;;;;;4988745;28;19936;-70
2021/01/14 01:19:55;;;;;;;;;;;;;;;;;;4987220;28;20108;-69
2021/01/14 01:22:22;;;;;;;;;;;;;;;;;;4988287;28;19929;-70
2021/01/14 01:24:49;;;;;;;;;;;;;;;;;;4988062;28;19933;-70
2021/01/14 01:27:17;;;;;;;;;;;;;;;;;;4988803;28;19934;-69
2021/01/14 01:29:44;;;;;;;;;;;;;;;;;;4987968;28;19926;-69
2021/01/14 01:32:11;;;;;;;;;;;;;;;;;;4988487;28;19925;-70
2021/01/14 01:34:38;;;;;;;;;;;;;;;;;;4988498;28;19929;-69
2021/01/14 01:37:05;;;;;;;;;;;;;;;;;;4988000;28;19925;-70
2021/01/14 01:39:32;;;;;;;;;;;;;;;;;;4979782;28;19932;-70
2021/01/14 01:41:59;;;;;;;;;;;;;;;;;;4973098;28;19934;-69
2021/01/14 01:44:26;;;;;;;;;;;;;;;;;;4981282;28;20389;-69
2021/01/14 01:46:53;;;;;;;;;;;;;;;;;;4987942;28;20150;-70
2021/01/14 01:49:20;;;;;;;;;;;;;;;;;;4987757;28;19932;-69
2021/01/14 01:51:47;;;;;;;;;;;;;;;;;;4987996;28;20509;-69
2021/01/14 01:54:15;;;;;;;;;;;;;;;;;;4988302;28;20020;-69
2021/01/14 01:56:42;;;;;;;;;;;;;;;;;;4989117;28;20451;-69
2021/01/14 01:59:09;;;;;;;;;;;;;;;;;;4987681;28;19929;-69
2021/01/14 02:04:15;;;;;;;;;;;;;;;;;;4968301;28;19926;-62
2021/01/14 02:06:42;;;;;;;;;;;;;;;;;;4968292;28;20841;-62
2021/01/14 02:09:09;;;;;;;;;;;;;;;;;;4973872;28;20310;-62
2021/01/14 02:11:37;;;;;;;;;;;;;;;;;;4972362;28;19936;-62
2021/01/14 02:14:04;;;;;;;;;;;;;;;;;;4973158;28;20392;-62
2021/01/14 02:16:32;;;;;;;;;;;;;;;;;;4972118;28;19932;-63
2021/01/14 02:18:59;;;;;;;;;;;;;;;;;;4971356;28;19936;-62
2021/01/14 02:21:26;;;;;;;;;;;;;;;;;;4971093;28;19934;-62
2021/01/14 02:23:53;;;;;;;;;;;;;;;;;;4972566;28;20041;-62
2021/01/14 02:26:20;;;;;;;;;;;;;;;;;;4970965;28;19953;-62
2021/01/14 02:28:47;;;;;;;;;;;;;;;;;;4953219;29;19941;-62
2021/01/14 02:31:14;;;;;;;;;;;;;;;;;;4971299;28;20393;-63
2021/01/14 02:33:42;;;;;;;;;;;;;;;;;;4972203;28;19933;-62
2021/01/14 02:36:09;;;;;;;;;;;;;;;;;;4972232;28;19934;-62
2021/01/14 02:38:36;;;;;;;;;;;;;;;;;;4972878;28;19956;-63
2021/01/14 02:41:03;;;;;;;;;;;;;;;;;;4970581;28;21792;-63
2021/01/14 02:43:30;;;;;;;;;;;;;;;;;;4970133;28;20364;-63
2021/01/14 02:45:57;;;;;;;;;;;;;;;;;;4972456;28;19948;-65
2021/01/14 02:48:24;;;;;;;;;;;;;;;;;;4972457;28;19926;-62
2021/01/14 02:50:51;;;;;;;;;;;;;;;;;;4965284;28;20394;-63
2021/01/14 02:53:19;;;;;;;;;;;;;;;;;;4973463;28;20434;-62
2021/01/14 02:55:46;;;;;;;;;;;;;;;;;;4972278;28;19937;-62
2021/01/14 02:58:13;;;;;;;;;;;;;;;;;;4971672;28;20028;-62
2021/01/14 03:00:41;;;;;;;;;;;;;;;;;;4970318;28;20155;-62
2021/01/14 03:03:08;;;;;;;;;;;;;;;;;;4971545;28;19942;-62
2021/01/14 03:05:35;;;;;;;;;;;;;;;;;;4973867;28;20020;-62
2021/01/14 03:08:02;;;;;;;;;;;;;;;;;;4970063;28;20330;-63
2021/01/14 03:10:29;;;;;;;;;;;;;;;;;;4970636;28;20293;-63
2021/01/14 03:12:56;;;;;;;;;;;;;;;;;;4972125;28;19974;-62
2021/01/14 03:15:23;;;;;;;;;;;;;;;;;;4969951;28;19936;-63
2021/01/14 03:17:50;;;;;;;;;;;;;;;;;;4971143;28;19930;-63
2021/01/14 03:20:17;;;;;;;;;;;;;;;;;;4969681;28;19927;-63
2021/01/14 03:22:45;;;;;;;;;;;;;;;;;;4971628;28;19930;-64
2021/01/14 03:25:12;;;;;;;;;;;;;;;;;;4972295;28;19930;-62
2021/01/14 03:27:39;;;;;;;;;;;;;;;;;;4970593;28;19930;-62
2021/01/14 03:30:06;;;;;;;;;;;;;;;;;;4971086;28;20571;-64
2021/01/14 03:32:33;;;;;;;;;;;;;;;;;;4970995;28;20402;-62
2021/01/14 03:35:00;;;;;;;;;;;;;;;;;;4971126;28;19936;-63
2021/01/14 03:37:27;;;;;;;;;;;;;;;;;;4970607;28;19937;-63
2021/01/14 03:39:55;;;;;;;;;;;;;;;;;;4969666;28;19926;-62
2021/01/14 03:42:22;;;;;;;;;;;;;;;;;;4970364;28;20378;-62
2021/01/14 03:44:49;;;;;;;;;;;;;;;;;;4956967;28;20267;-62
2021/01/14 03:47:16;;;;;;;;;;;;;;;;;;4968211;28;19933;-62
2021/01/14 03:49:43;;;;;;;;;;;;;;;;;;4970972;28;19933;-62
2021/01/14 03:52:10;;;;;;;;;;;;;;;;;;4970346;28;19938;-62
2021/01/14 03:54:37;;;;;;;;;;;;;;;;;;4969815;28;20415;-63
2021/01/14 03:57:04;;;;;;;;;;;;;;;;;;4971196;28;19965;-62
2021/01/14 03:59:31;;;;;;;;;;;;;;;;;;4969586;28;19926;-62
2021/01/14 04:01:58;;;;;;;;;;;;;;;;;;4969296;28;19941;-62
2021/01/14 04:04:25;;;;;;;;;;;;;;;;;;4970963;28;20118;-62
2021/01/14 04:06:52;;;;;;;;;;;;;;;;;;4970298;28;19930;-62
2021/01/14 04:09:19;;;;;;;;;;;;;;;;;;4969574;28;20390;-63
2021/01/14 04:11:50;;;;;;;;;;;;;;;;;;4969680;28;19934;-63
2021/01/14 04:14:20;;;;;;;;;;;;;;;;;;4967471;28;20003;-62
2021/01/14 04:16:47;;;;;;;;;;;;;;;;;;4965697;28;19930;-62
2021/01/14 04:19:14;;;;;;;;;;;;;;;;;;4966048;28;19953;-62
2021/01/14 04:21:41;;;;;;;;;;;;;;;;;;4970575;28;19937;-63
2021/01/14 04:24:08;;;;;;;;;;;;;;;;;;4969461;28;19930;-63
2021/01/14 04:26:35;;;;;;;;;;;;;;;;;;4970302;28;19926;-63
2021/01/14 04:29:02;;;;;;;;;;;;;;;;;;4969318;28;20404;-63
2021/01/14 04:31:29;;;;;;;;;;;;;;;;;;4969388;28;19965;-61
2021/01/14 04:34:01;;;;;;;;;;;;;;;;;;4969739;28;19934;-62
2021/01/14 04:36:28;;;;;;;;;;;;;;;;;;4967132;28;19934;-62
2021/01/14 04:38:55;;;;;;;;;;;;;;;;;;4969669;28;19926;-64
2021/01/14 04:41:22;;;;;;;;;;;;;;;;;;4969476;28;19937;-63
2021/01/14 04:43:49;;;;;;;;;;;;;;;;;;4969021;28;19949;-63
2021/01/14 04:46:16;;;;;;;;;;;;;;;;;;4969275;28;20021;-62
2021/01/14 04:48:44;;;;;;;;;;;;;;;;;;4968627;28;20186;-62
2021/01/14 04:51:11;;;;;;;;;;;;;;;;;;4969923;28;19930;-62
2021/01/14 04:53:38;;;;;;;;;;;;;;;;;;4969403;28;20337;-63
2021/01/14 04:56:06;;;;;;;;;;;;;;;;;;4962854;28;19933;-61
2021/01/14 04:58:33;;;;;;;;;;;;;;;;;;4969118;28;19936;-63
2021/01/14 05:01:00;;;;;;;;;;;;;;;;;;4968832;28;19956;-63
2021/01/14 05:03:28;;;;;;;;;;;;;;;;;;4969092;28;19936;-62
2021/01/14 05:05:55;;;;;;;;;;;;;;;;;;4969727;28;19934;-63
2021/01/14 05:08:22;;;;;;;;;;;;;;;;;;4969972;28;19926;-62
2021/01/14 05:10:49;;;;;;;;;;;;;;;;;;4968472;28;20282;-64
2021/01/14 05:13:16;;;;;;;;;;;;;;;;;;4969734;28;20020;-64
2021/01/14 05:15:43;;;;;;;;;;;;;;;;;;4969668;28;20026;-63
2021/01/14 05:18:10;;;;;;;;;;;;;;;;;;4969645;28;19936;-63
2021/01/14 05:20:37;;;;;;;;;;;;;;;;;;4968834;28;20714;-64
2021/01/14 05:23:04;;;;;;;;;;;;;;;;;;4969220;28;20288;-63
2021/01/14 05:25:31;;;;;;;;;;;;;;;;;;4970686;28;19937;-63
2021/01/14 05:27:58;;;;;;;;;;;;;;;;;;4970011;28;20281;-63
2021/01/14 05:30:25;;;;;;;;;;;;;;;;;;4967214;28;20444;-63
2021/01/14 05:32:52;;;;;;;;;;;;;;;;;;4969923;28;20398;-64
2021/01/14 05:35:20;;;;;;;;;;;;;;;;;;4968000;28;19926;-62
2021/01/14 05:37:47;;;;;;;;;;;;;;;;;;4969258;28;19934;-63
2021/01/14 05:40:14;;;;;;;;;;;;;;;;;;4967828;28;19933;-62
2021/01/14 05:42:41;;;;;;;;;;;;;;;;;;4969640;28;20041;-63
2021/01/14 05:45:08;;;;;;;;;;;;;;;;;;4969490;28;20422;-63
2021/01/14 05:47:35;;;;;;;;;;;;;;;;;;4968540;28;19930;-62
2021/01/14 05:50:03;;;;;;;;;;;;;;;;;;4968762;28;20293;-62
2021/01/14 05:52:30;;;;;;;;;;;;;;;;;;4969194;28;19926;-63
2021/01/14 05:54:57;;;;;;;;;;;;;;;;;;4969190;28;19936;-63
2021/01/14 05:57:24;;;;;;;;;;;;;;;;;;4969264;28;19926;-62
2021/01/14 05:59:51;;;;;;;;;;;;;;;;;;4968220;28;19926;-64
2021/01/14 06:02:18;;;;;;;;;;;;;;;;;;4969487;28;19936;-62
2021/01/14 06:04:45;;;;;;;;;;;;;;;;;;4967589;28;20304;-62
2021/01/14 06:07:12;;;;;;;;;;;;;;;;;;4973459;28;19984;-62
2021/01/14 06:09:40;;;;;;;;;;;;;;;;;;4965527;28;20372;-62
2021/01/14 06:12:07;;;;;;;;;;;;;;;;;;4968484;28;19930;-62
2021/01/14 06:14:34;;;;;;;;;;;;;;;;;;4968112;28;19926;-62
2021/01/14 06:17:01;;;;;;;;;;;;;;;;;;4967044;28;19926;-63
2021/01/14 06:19:28;;;;;;;;;;;;;;;;;;4966170;28;19934;-63
2021/01/14 06:21:56;;;;;;;;;;;;;;;;;;4969386;28;19940;-63
2021/01/14 06:24:24;;;;;;;;;;;;;;;;;;4953984;28;20016;-62
2021/01/14 06:26:52;;;;;;;;;;;;;;;;;;4961052;28;19930;-62
2021/01/14 06:29:19;;;;;;;;;;;;;;;;;;4963851;28;19934;-63
2021/01/14 06:31:46;;;;;;;;;;;;;;;;;;4965092;28;19926;-63
2021/01/14 06:34:13;;;;;;;;;;;;;;;;;;4964024;28;20692;-62
2021/01/14 06:36:40;;;;;;;;;;;;;;;;;;4968876;28;20013;-62
2021/01/14 06:39:07;;;;;;;;;;;;;;;;;;4968399;28;19937;-63
2021/01/14 06:41:34;;;;;;;;;;;;;;;;;;4968749;28;20239;-63
2021/01/14 06:44:02;;;;;;;;;;;;;;;;;;4961818;28;20053;-62
2021/01/14 06:46:29;;;;;;;;;;;;;;;;;;4967673;28;19945;-62
2021/01/14 06:48:57;;;;;;;;;;;;;;;;;;4959342;28;20361;-62
2021/01/14 06:51:24;;;;;;;;;;;;;;;;;;4964384;28;19937;-63
2021/01/14 06:53:51;;;;;;;;;;;;;;;;;;4963276;28;20029;-63
2021/01/14 06:56:18;;;;;;;;;;;;;;;;;;4968618;28;20414;-62
2021/01/14 06:58:45;;;;;;;;;;;;;;;;;;4966082;28;19936;-63
2021/01/14 07:01:12;;;;;;;;;;;;;;;;;;4966535;28;19965;-61
2021/01/14 07:03:39;;;;;;;;;;;;;;;;;;4958237;28;20571;-63
2021/01/14 07:06:07;;;;;;;;;;;;;;;;;;4965183;28;20037;-63
2021/01/14 07:08:35;;;;;;;;;;;;;;;;;;4962685;28;19946;-62
2021/01/14 07:11:02;;;;;;;;;;;;;;;;;;4973336;28;19981;-61
2021/01/14 07:13:29;;;;;;;;;;;;;;;;;;4964299;28;20028;-64
2021/01/14 07:15:56;;;;;;;;;;;;;;;;;;4965794;28;20041;-62
2021/01/14 07:18:23;;;;;;;;;;;;;;;;;;4963874;28;19930;-63
2021/01/14 07:20:50;;;;;;;;;;;;;;;;;;4967487;28;19980;-63
2021/01/14 07:23:18;;;;;;;;;;;;;;;;;;4968592;28;20020;-63
2021/01/14 07:25:45;;;;;;;;;;;;;;;;;;4966728;28;20051;-62
2021/01/14 07:28:12;;;;;;;;;;;;;;;;;;4964704;28;19930;-62
2021/01/14 07:30:39;;;;;;;;;;;;;;;;;;4963655;28;20578;-63
2021/01/14 07:33:06;;;;;;;;;;;;;;;;;;4962148;28;19930;-64
2021/01/14 07:35:34;;;;;;;;;;;;;;;;;;4960937;28;19984;-63
2021/01/14 07:38:02;;;;;;;;;;;;;;;;;;4960560;28;20282;-63
2021/01/14 07:40:29;;;;;;;;;;;;;;;;;;4961410;28;20401;-62
2021/01/14 07:42:57;;;;;;;;;;;;;;;;;;4963514;28;19930;-63
2021/01/14 07:45:25;;;;;;;;;;;;;;;;;;4962557;28;20028;-62
2021/01/14 07:47:52;;;;;;;;;;;;;;;;;;4960146;28;20309;-62
2021/01/14 07:50:19;;;;;;;;;;;;;;;;;;4964670;28;19930;-62
2021/01/14 07:52:47;;;;;;;;;;;;;;;;;;4963698;28;20405;-64
2021/01/14 07:55:15;;;;;;;;;;;;;;;;;;4961674;28;20149;-64
2021/01/14 07:57:42;;;;;;;;;;;;;;;;;;4958443;28;19933;-64
2021/01/14 08:00:09;;;;;;;;;;;;;;;;;;4957291;28;19930;-63
2021/01/14 08:02:37;;;;;;;;;;;;;;;;;;4962409;28;19941;-63
2021/01/14 08:05:04;;;;;;;;;;;;;;;;;;4963574;28;19937;-63
2021/01/14 08:07:32;;;;;;;;;;;;;;;;;;4963797;28;20381;-64
2021/01/14 08:10:02;;;;;;;;;;;;;;;;;;4962193;28;19941;-63
2021/01/14 08:12:33;;;;;;;;;;;;;;;;;;4964569;28;20324;-64
2021/01/14 08:15:01;;;;;;;;;;;;;;;;;;4955914;28;19930;-62
2021/01/14 08:17:29;;;;;;;;;;;;;;;;;;4964649;28;20358;-64
2021/01/14 08:19:58;;;;;;;;;;;;;;;;;;4961046;28;20085;-63
2021/01/14 08:22:26;;;;;;;;;;;;;;;;;;4962928;28;19930;-62
2021/01/14 08:24:53;;;;;;;;;;;;;;;;;;4952410;28;19966;-62
2021/01/14 08:27:21;;;;;;;;;;;;;;;;;;4960379;28;20198;-63
2021/01/14 08:29:50;;;;;;;;;;;;;;;;;;4951638;28;19930;-62
2021/01/14 08:32:18;;;;;;;;;;;;;;;;;;4959506;28;20303;-61
2021/01/14 08:34:47;;;;;;;;;;;;;;;;;;4961288;28;19976;-62
2021/01/14 08:37:14;;;;;;;;;;;;;;;;;;4960978;28;20002;-63
2021/01/14 08:39:42;;;;;;;;;;;;;;;;;;4963787;28;20172;-62
2021/01/14 08:42:09;;;;;;;;;;;;;;;;;;4967896;28;19930;-63
2021/01/14 08:44:37;;;;;;;;;;;;;;;;;;4961540;28;20313;-64
2021/01/14 08:47:04;;;;;;;;;;;;;;;;;;4961925;28;19933;-63
2021/01/14 08:49:31;;;;;;;;;;;;;;;;;;4957946;28;20033;-62
2021/01/14 08:51:59;;;;;;;;;;;;;;;;;;4962039;28;20668;-64
2021/01/14 08:54:26;;;;;;;;;;;;;;;;;;4965127;28;19931;-63
2021/01/14 08:56:54;;;;;;;;;;;;;;;;;;4965417;28;20033;-65
2021/01/14 08:59:22;;;;;;;;;;;;;;;;;;4964830;28;19933;-63
2021/01/14 09:01:50;;;;;;;;;;;;;;;;;;4963242;28;19946;-63
2021/01/14 09:04:18;;;;;;;;;;;;;;;;;;4959683;28;19930;-62
2021/01/14 09:06:45;;;;;;;;;;;;;;;;;;4959619;28;19934;-62
2021/01/14 09:09:13;;;;;;;;;;;;;;;;;;4957144;28;20436;-62
2021/01/14 09:11:40;;;;;;;;;;;;;;;;;;4957354;28;19932;-63
2021/01/14 09:14:08;;;;;;;;;;;;;;;;;;4966928;28;20463;-64
2021/01/14 09:16:35;;;;;;;;;;;;;;;;;;4960777;28;20368;-63
2021/01/14 09:19:03;;;;;;;;;;;;;;;;;;4957827;28;19926;-62
2021/01/14 09:21:32;;;;;;;;;;;;;;;;;;4958143;28;20337;-62
2021/01/14 09:23:59;;;;;;;;;;;;;;;;;;4964527;28;19981;-62
2021/01/14 09:26:26;;;;;;;;;;;;;;;;;;4966008;28;19937;-62
2021/01/14 09:28:54;;;;;;;;;;;;;;;;;;4962192;28;19930;-62
2021/01/14 09:31:22;;;;;;;;;;;;;;;;;;4961186;28;20441;-63
2021/01/14 09:33:49;;;;;;;;;;;;;;;;;;4962122;28;20043;-62
2021/01/14 09:36:17;;;;;;;;;;;;;;;;;;4959571;28;19934;-62
2021/01/14 09:38:46;;;;;;;;;;;;;;;;;;4963019;28;19930;-62
2021/01/14 09:41:19;;;;;;;;;;;;;;;;;;4960256;28;21617;-63
2021/01/14 09:43:49;;;;;;;;;;;;;;;;;;4954259;28;19973;-62
2021/01/14 09:46:17;;;;;;;;;;;;;;;;;;4965821;28;19934;-62
2021/01/14 09:48:45;;;;;;;;;;;;;;;;;;4955457;28;20574;-62
2021/01/14 09:51:12;;;;;;;;;;;;;;;;;;4950514;28;19933;-63
2021/01/14 09:53:40;;;;;;;;;;;;;;;;;;4959169;28;19934;-63
2021/01/14 09:56:07;;;;;;;;;;;;;;;;;;4964576;28;19985;-64
2021/01/14 09:58:35;;;;;;;;;;;;;;;;;;4958597;28;20275;-64
2021/01/14 10:01:03;;;;;;;;;;;;;;;;;;4960170;28;19926;-63
2021/01/14 10:03:31;;;;;;;;;;;;;;;;;;4960535;28;19934;-63
2021/01/14 10:06:01;;;;;;;;;;;;;;;;;;4960422;28;20357;-63
2021/01/14 10:08:28;;;;;;;;;;;;;;;;;;4963182;28;20001;-63
2021/01/14 10:10:56;;;;;;;;;;;;;;;;;;4960205;28;19941;-63
2021/01/14 10:13:24;;;;;;;;;;;;;;;;;;4962037;28;20351;-64
2021/01/14 10:15:51;;;;;;;;;;;;;;;;;;4965927;28;20014;-61
2021/01/14 10:18:19;;;;;;;;;;;;;;;;;;4963854;28;19926;-63
2021/01/14 10:20:47;;;;;;;;;;;;;;;;;;4965104;28;19930;-62
2021/01/14 10:23:14;;;;;;;;;;;;;;;;;;4956191;28;19938;-61
2021/01/14 10:25:42;;;;;;;;;;;;;;;;;;4957581;28;19935;-64
2021/01/14 10:28:10;;;;;;;;;;;;;;;;;;4967272;28;19926;-62
2021/01/14 10:30:38;;;;;;;;;;;;;;;;;;4966814;28;19937;-64
2021/01/14 10:33:05;;;;;;;;;;;;;;;;;;4967728;28;19926;-62
2021/01/14 10:35:33;;;;;;;;;;;;;;;;;;4960156;28;19937;-62
2021/01/14 10:38:01;;;;;;;;;;;;;;;;;;4968849;28;19934;-62
2021/01/14 10:40:28;;;;;;;;;;;;;;;;;;4971622;28;20322;-63
2021/01/14 10:42:56;;;;;;;;;;;;;;;;;;4964313;28;20031;-63
2021/01/14 10:45:23;;;;;;;;;;;;;;;;;;4962429;28;20163;-65
2021/01/14 10:47:51;;;;;;;;;;;;;;;;;;4964625;28;20907;-62
2021/01/14 10:50:18;;;;;;;;;;;;;;;;;;4958038;28;19927;-62
2021/01/14 10:52:46;;;;;;;;;;;;;;;;;;4952433;28;19961;-63
2021/01/14 10:55:14;;;;;;;;;;;;;;;;;;4968235;28;19930;-64
2021/01/14 10:57:58;;;;;;;;;;;;;;;;;;4962863;28;20580;-62
2021/01/14 11:00:25;;;;;;;;;;;;;;;;;;4957396;28;19973;-63
2021/01/14 11:02:53;;;;;;;;;;;;;;;;;;4965258;28;20396;-64
2021/01/14 11:05:21;;;;;;;;;;;;;;;;;;4966276;28;20347;-63
2021/01/14 11:07:48;;;;;;;;;;;;;;;;;;4967187;28;19926;-62
2021/01/14 11:10:15;;;;;;;;;;;;;;;;;;4963374;28;19934;-64
2021/01/14 11:12:43;;;;;;;;;;;;;;;;;;4963483;28;20036;-62
2021/01/14 11:15:10;;;;;;;;;;;;;;;;;;4968073;28;20390;-63
2021/01/14 11:17:38;;;;;;;;;;;;;;;;;;4966779;28;19937;-63
2021/01/14 11:20:06;;;;;;;;;;;;;;;;;;4964374;28;19978;-63
2021/01/14 11:22:33;;;;;;;;;;;;;;;;;;4969658;28;20321;-64
2021/01/14 11:25:00;;;;;;;;;;;;;;;;;;4961397;28;19940;-63
2021/01/14 11:27:28;;;;;;;;;;;;;;;;;;4961853;28;19926;-61
2021/01/14 11:29:55;;;;;;;;;;;;;;;;;;4965803;28;20029;-62
2021/01/14 11:32:23;;;;;;;;;;;;;;;;;;4967890;28;20420;-62
2021/01/14 11:34:53;;;;;;;;;;;;;;;;;;4967965;28;19940;-63
2021/01/14 11:37:22;;;;;;;;;;;;;;;;;;4965819;28;19926;-62
2021/01/14 11:39:49;;;;;;;;;;;;;;;;;;4966763;28;20029;-63
2021/01/14 11:42:17;;;;;;;;;;;;;;;;;;4961084;28;19930;-63
2021/01/14 11:44:45;;;;;;;;;;;;;;;;;;4962867;28;20028;-64
2021/01/14 11:47:12;;;;;;;;;;;;;;;;;;4968069;28;20024;-64
2021/01/14 11:49:40;;;;;;;;;;;;;;;;;;4962618;28;19953;-61
2021/01/14 11:52:07;;;;;;;;;;;;;;;;;;4970236;28;19936;-62
2021/01/14 11:54:35;;;;;;;;;;;;;;;;;;4966116;28;19926;-64
2021/01/14 11:57:03;;;;;;;;;;;;;;;;;;4964029;28;19980;-63
2021/01/14 11:59:30;;;;;;;;;;;;;;;;;;4955149;28;20313;-64
2021/01/14 12:01:58;;;;;;;;;;;;;;;;;;4968541;28;19926;-62
2021/01/14 12:04:25;;;;;;;;;;;;;;;;;;4966755;28;20306;-61
2021/01/14 12:06:53;;;;;;;;;;;;;;;;;;4956132;28;19936;-64
2021/01/14 12:09:20;;;;;;;;;;;;;;;;;;4967526;28;19934;-64
2021/01/14 12:11:48;;;;;;;;;;;;;;;;;;4962706;28;19934;-62
2021/01/14 12:14:15;;;;;;;;;;;;;;;;;;4963306;28;20013;-65
2021/01/14 12:16:42;;;;;;;;;;;;;;;;;;4962332;28;20037;-62
2021/01/14 12:19:10;;;;;;;;;;;;;;;;;;4959854;28;19977;-62
2021/01/14 12:21:37;;;;;;;;;;;;;;;;;;4960520;28;19930;-64
2021/01/14 12:24:04;;;;;;;;;;;;;;;;;;4962746;28;19930;-62
2021/01/14 12:26:32;;;;;;;;;;;;;;;;;;4966522;28;19934;-64
2021/01/14 12:29:03;;;;;;;;;;;;;;;;;;4963271;28;20076;-64
2021/01/14 12:31:30;;;;;;;;;;;;;;;;;;4964571;28;19962;-64
2021/01/14 12:33:58;;;;;;;;;;;;;;;;;;4962081;28;20612;-63
2021/01/14 12:36:31;;;;;;;;;;;;;;;;;;4966882;28;19930;-62
2021/01/14 12:38:58;;;;;;;;;;;;;;;;;;4962356;28;19985;-63
2021/01/14 12:41:26;;;;;;;;;;;;;;;;;;4966547;28;19926;-62
2021/01/14 12:43:53;;;;;;;;;;;;;;;;;;4963172;28;19929;-64
2021/01/14 12:46:20;;;;;;;;;;;;;;;;;;4961757;28;19938;-63
2021/01/14 12:48:48;;;;;;;;;;;;;;;;;;4965546;28;20294;-63
2021/01/14 12:51:15;;;;;;;;;;;;;;;;;;4964723;28;19989;-63
2021/01/14 12:53:43;;;;;;;;;;;;;;;;;;4961386;28;20837;-63
2021/01/14 12:56:11;;;;;;;;;;;;;;;;;;4958664;28;19930;-63
2021/01/14 12:58:38;;;;;;;;;;;;;;;;;;4960234;28;19930;-63
2021/01/14 13:01:05;;;;;;;;;;;;;;;;;;4966510;28;19952;-63
2021/01/14 13:03:44;;;;;;;;;;;;;;;;;;4964886;28;19930;-62
2021/01/14 13:06:11;;;;;;;;;;;;;;;;;;4963160;28;20545;-61
2021/01/14 13:08:38;;;;;;;;;;;;;;;;;;4954962;28;19930;-62
2021/01/14 13:11:06;;;;;;;;;;;;;;;;;;4965567;28;19930;-62
2021/01/14 13:13:33;;;;;;;;;;;;;;;;;;4966891;28;19948;-63
2021/01/14 13:16:01;;;;;;;;;;;;;;;;;;4966079;28;19934;-63
2021/01/14 13:18:28;;;;;;;;;;;;;;;;;;4964315;28;19927;-62
2021/01/14 13:20:56;;;;;;;;;;;;;;;;;;4957755;28;19926;-62
2021/01/14 13:23:23;;;;;;;;;;;;;;;;;;4964765;28;20297;-63
2021/01/14 13:25:52;;;;;;;;;;;;;;;;;;4961874;28;20359;-63
2021/01/14 13:28:20;;;;;;;;;;;;;;;;;;4958935;28;19926;-62
2021/01/14 13:30:47;;;;;;;;;;;;;;;;;;4959576;28;19930;-63
2021/01/14 13:33:16;;;;;;;;;;;;;;;;;;4963657;28;19930;-62
2021/01/14 13:35:44;;;;;;;;;;;;;;;;;;4946733;28;20029;-62
2021/01/14 13:38:12;;;;;;;;;;;;;;;;;;4957329;28;20040;-62
2021/01/14 13:40:39;;;;;;;;;;;;;;;;;;4953846;28;19930;-61
2021/01/14 13:43:07;;;;;;;;;;;;;;;;;;4960398;28;20394;-63
2021/01/14 13:45:34;;;;;;;;;;;;;;;;;;4952618;28;19931;-63
2021/01/14 13:48:02;;;;;;;;;;;;;;;;;;4954562;28;20338;-62
2021/01/14 13:50:29;;;;;;;;;;;;;;;;;;4955254;28;20010;-62
2021/01/14 13:52:57;;;;;;;;;;;;;;;;;;4952705;28;19938;-63
2021/01/14 13:55:24;;;;;;;;;;;;;;;;;;4948797;28;20410;-62
2021/01/14 13:57:51;;;;;;;;;;;;;;;;;;4955041;28;19930;-62
2021/01/14 14:00:19;;;;;;;;;;;;;;;;;;4955178;28;19941;-62
2021/01/14 14:02:46;;;;;;;;;;;;;;;;;;4959317;28;19977;-64
2021/01/14 14:05:14;;;;;;;;;;;;;;;;;;4967557;28;20800;-63
2021/01/14 14:07:44;;;;;;;;;;;;;;;;;;4964665;28;19930;-62
2021/01/14 14:10:11;;;;;;;;;;;;;;;;;;4968531;28;20393;-63
2021/01/14 14:12:40;;;;;;;;;;;;;;;;;;4959965;28;20356;-65
2021/01/14 14:15:07;;;;;;;;;;;;;;;;;;4967646;28;19993;-64
2021/01/14 14:17:35;;;;;;;;;;;;;;;;;;4964483;28;19937;-63
2021/01/14 14:20:02;;;;;;;;;;;;;;;;;;4963589;28;19934;-64
2021/01/14 14:22:31;;;;;;;;;;;;;;;;;;4962510;28;20065;-62
2021/01/14 14:24:59;;;;;;;;;;;;;;;;;;4952459;28;19930;-62
2021/01/14 14:27:26;;;;;;;;;;;;;;;;;;4962102;28;20120;-64
2021/01/14 14:29:53;;;;;;;;;;;;;;;;;;4967750;28;19929;-64
2021/01/14 14:32:21;;;;;;;;;;;;;;;;;;4968803;28;20016;-65
2021/01/14 14:34:49;;;;;;;;;;;;;;;;;;4965259;28;19930;-63
2021/01/14 14:37:16;;;;;;;;;;;;;;;;;;4966660;28;20028;-63
2021/01/14 14:39:44;;;;;;;;;;;;;;;;;;4964307;28;20032;-64
2021/01/14 14:42:12;;;;;;;;;;;;;;;;;;4964031;28;20382;-64
2021/01/14 14:44:39;;;;;;;;;;;;;;;;;;4966537;28;19962;-63
2021/01/14 14:47:07;;;;;;;;;;;;;;;;;;4961567;28;19930;-63
2021/01/14 14:49:35;;;;;;;;;;;;;;;;;;4966234;28;19933;-65
2021/01/14 14:52:03;;;;;;;;;;;;;;;;;;4974458;28;19938;-64
2021/01/14 14:54:30;;;;;;;;;;;;;;;;;;4963674;28;20084;-63
2021/01/14 14:56:58;;;;;;;;;;;;;;;;;;4968930;28;19961;-63
2021/01/14 14:59:25;;;;;;;;;;;;;;;;;;4963059;28;20164;-66
2021/01/14 15:01:53;;;;;;;;;;;;;;;;;;4954655;28;20330;-64
2021/01/14 15:04:20;;;;;;;;;;;;;;;;;;4958974;28;19930;-62
2021/01/14 15:06:48;;;;;;;;;;;;;;;;;;4963713;28;19969;-62
2021/01/14 15:09:16;;;;;;;;;;;;;;;;;;4970760;28;19934;-62
2021/01/14 15:11:44;;;;;;;;;;;;;;;;;;4964700;28;19945;-63
2021/01/14 15:14:12;;;;;;;;;;;;;;;;;;4968013;28;19949;-62
2021/01/14 15:16:40;;;;;;;;;;;;;;;;;;4969682;28;19988;-62
2021/01/14 15:19:07;;;;;;;;;;;;;;;;;;4957627;28;19930;-64
2021/01/14 15:21:34;;;;;;;;;;;;;;;;;;4961321;28;20396;-63
2021/01/14 15:24:02;;;;;;;;;;;;;;;;;;4964975;28;19934;-65
2021/01/14 15:26:29;;;;;;;;;;;;;;;;;;4964188;28;19937;-63
2021/01/14 15:28:57;;;;;;;;;;;;;;;;;;4967415;28;19957;-63
2021/01/14 15:31:24;;;;;;;;;;;;;;;;;;4964755;28;20442;-62
2021/01/14 15:33:52;;;;;;;;;;;;;;;;;;4966111;28;20359;-64
2021/01/14 15:36:19;;;;;;;;;;;;;;;;;;4970377;28;20033;-62
2021/01/14 15:38:47;;;;;;;;;;;;;;;;;;4967061;28;20456;-63
2021/01/14 15:41:16;;;;;;;;;;;;;;;;;;4966478;28;19953;-64
2021/01/14 15:43:43;;;;;;;;;;;;;;;;;;4966147;28;19937;-63
2021/01/14 15:46:11;;;;;;;;;;;;;;;;;;4968916;28;20413;-62
2021/01/14 15:48:39;;;;;;;;;;;;;;;;;;4958086;28;19926;-64
2021/01/14 15:51:06;;;;;;;;;;;;;;;;;;4956555;28;19931;-63
2021/01/14 15:53:34;;;;;;;;;;;;;;;;;;4963661;28;19966;-62
2021/01/14 15:56:01;;;;;;;;;;;;;;;;;;4961207;28;19934;-63
2021/01/14 15:58:28;;;;;;;;;;;;;;;;;;4961685;28;20235;-63
2021/01/14 16:00:56;;;;;;;;;;;;;;;;;;4965181;28;20080;-64
2021/01/14 16:03:23;;;;;;;;;;;;;;;;;;4964709;28;19940;-62
2021/01/14 16:05:51;;;;;;;;;;;;;;;;;;4965954;28;19930;-63
2021/01/14 16:08:18;;;;;;;;;;;;;;;;;;4964768;28;19930;-63
2021/01/14 16:10:45;;;;;;;;;;;;;;;;;;4965076;28;19926;-63
2021/01/14 16:13:12;;;;;;;;;;;;;;;;;;4963391;28;19930;-64
2021/01/14 16:15:40;;;;;;;;;;;;;;;;;;4963020;28;20013;-63
2021/01/14 16:18:08;;;;;;;;;;;;;;;;;;4962372;28;19981;-66
2021/01/14 16:20:35;;;;;;;;;;;;;;;;;;4960444;28;20268;-63
2021/01/14 16:23:02;;;;;;;;;;;;;;;;;;4961528;28;19926;-64
2021/01/14 16:25:30;;;;;;;;;;;;;;;;;;4967884;28;19930;-63
2021/01/14 16:27:57;;;;;;;;;;;;;;;;;;4953414;28;20347;-66
2021/01/14 16:30:25;;;;;;;;;;;;;;;;;;4962398;28;19937;-62
2021/01/14 16:32:52;;;;;;;;;;;;;;;;;;4958254;28;19930;-63
2021/01/14 16:35:20;;;;;;;;;;;;;;;;;;4952446;28;20433;-64
2021/01/14 16:37:47;;;;;;;;;;;;;;;;;;4962577;28;19930;-62
2021/01/14 16:40:15;;;;;;;;;;;;;;;;;;4964739;28;19936;-68
2021/01/14 16:42:42;;;;;;;;;;;;;;;;;;4958843;28;20429;-63
2021/01/14 16:45:09;;;;;;;;;;;;;;;;;;4966089;28;19931;-63
2021/01/14 16:47:37;;;;;;;;;;;;;;;;;;4957658;28;19934;-63
2021/01/14 16:50:04;;;;;;;;;;;;;;;;;;4962329;28;19930;-64